Solon, Iowa
Current Conditions -  °F | °C
As of 8:52 AM on Friday 24 Oct 2014 (Local Time) from KCID Reporting Station
Moderate Fog Moderate Fog  
Wind Chill: 43°   Ceiling: 100
Heat Index: 47°   Visibility: 0.06mi
Dew Point: 47°   Wind: 8mph
Humidity: 100%   Direction: 160°SSE
Pressure: 30.03"   Gusts: NA
Location:  41.81°N, 91.49°W
Report Text: KCID 241352Z 16007KT 1/16SM FG VV001 08/08 A3003 RMK AO2 SLP171 T00830083
Loading
Personal Weather Stations






























Interactive Weather Map New forecast layout! Learn more

10-Day Weather Forecast

Advertisements
Track Severe Weather on mobile